Time;durP1;ratioP1;P1;durP2;ratioP2;P2;SDS_P1;SDS_P2;PMS_P1;PMS_P2;Temp;Humidity;BMP_temperature;BMP_pressure;BME280_temperature;BME280_humidity;BME280_pressure;Samples;Min_cycle;Max_cycle;Signal;HPM_P1;HPM_P2
2022/02/26 00:01:33;;;;;;;13.48;7.05;;;;;;;11.78;37.10;100631.86;2255615;86;25940;-73
2022/02/26 00:04:54;;;;;;;10.60;6.78;;;;;;;11.76;37.07;100632.66;2296446;86;25713;-77
2022/02/26 00:08:15;;;;;;;14.47;6.60;;;;;;;11.72;37.08;100643.47;2298561;84;25682;-72
2022/02/26 00:11:36;;;;;;;9.80;6.62;;;;;;;11.71;37.09;100643.41;2298856;84;25709;-73
2022/02/26 00:15:02;;;;;;;12.58;7.15;;;;;;;11.68;37.13;100645.55;2298863;86;26383;-72
2022/02/26 00:18:23;;;;;;;10.88;7.00;;;;;;;11.67;37.11;100648.11;2298548;86;25747;-73
2022/02/26 00:21:44;;;;;;;9.93;7.05;;;;;;;11.65;37.14;100651.13;2299312;84;30642;-70
2022/02/26 00:25:09;;;;;;;12.07;7.22;;;;;;;11.63;37.20;100648.89;2299230;84;25644;-72
2022/02/26 00:28:34;;;;;;;13.10;7.50;;;;;;;11.59;37.19;100651.43;2298951;86;25636;-72
2022/02/26 00:31:55;;;;;;;13.50;6.37;;;;;;;11.57;37.21;100654.84;2289669;85;25780;-71
2022/02/26 00:35:18;;;;;;;12.00;6.97;;;;;;;11.55;37.22;100650.03;2285046;86;29851;-71
2022/02/26 00:38:39;;;;;;;8.70;6.50;;;;;;;11.53;37.22;100657.80;2285321;84;25621;-76
2022/02/26 00:42:00;;;;;;;12.97;6.67;;;;;;;11.51;37.26;100665.16;2285630;85;29001;-72
2022/02/26 00:45:21;;;;;;;11.33;6.55;;;;;;;11.49;37.27;100662.92;2285502;85;29910;-79
2022/02/26 00:52:35;;;;;;;10.60;6.35;;;;;;;11.47;37.25;100663.30;2213566;88;25934;-79
2022/02/26 00:55:56;;;;;;;10.90;6.20;;;;;;;11.46;37.29;100665.46;2213872;88;26335;-71
2022/02/26 00:59:18;;;;;;;12.73;7.00;;;;;;;11.44;37.26;100668.05;2192863;89;25863;-76
2022/02/26 01:02:43;;;;;;;9.45;6.55;;;;;;;11.45;37.28;100668.92;2192820;89;25706;-72
2022/02/26 01:06:06;;;;;;;8.30;5.95;;;;;;;11.45;37.25;100676.76;2213316;87;25751;-83
2022/02/26 01:09:45;;;;;;;11.45;6.85;;;;;;;11.44;37.25;100682.80;2214076;88;25750;-71
2022/02/26 01:13:08;;;;;;;10.53;7.03;;;;;;;11.43;37.27;100681.92;2192585;88;25678;-82
2022/02/26 01:16:31;;;;;;;11.43;7.08;;;;;;;11.44;37.26;100680.19;2213965;88;25741;-73
2022/02/26 01:19:52;;;;;;;10.48;6.55;;;;;;;11.44;37.29;100683.72;2150958;88;25776;-83
2022/02/26 01:23:18;;;;;;;10.80;6.87;;;;;;;11.44;37.22;100681.50;2213868;88;26009;-78
2022/02/26 01:26:44;;;;;;;14.40;7.47;;;;;;;11.44;37.26;100681.50;2191023;89;25910;-73
2022/02/26 01:30:06;;;;;;;13.10;6.87;;;;;;;11.43;37.29;100679.31;2212994;88;25751;-72
2022/02/26 01:33:27;;;;;;;11.30;6.85;;;;;;;11.44;37.30;100685.02;2175366;88;25718;-76
2022/02/26 01:36:57;;;;;;;10.38;6.97;;;;;;;11.43;37.24;100687.14;2195842;90;30562;-80
2022/02/26 01:40:18;;;;;;;10.88;6.28;;;;;;;11.44;37.32;100690.63;2195882;88;25731;-75
2022/02/26 01:43:42;;;;;;;13.53;7.22;;;;;;;11.43;37.29;100694.98;2195723;88;25722;-73
2022/02/26 01:47:05;;;;;;;15.85;8.23;;;;;;;11.42;37.32;100693.65;2195790;88;25723;-73
2022/02/26 01:50:29;;;;;;;14.00;7.72;;;;;;;11.43;37.31;100703.23;2242932;86;25686;-76
2022/02/26 01:53:52;;;;;;;11.45;6.15;;;;;;;11.42;37.35;100697.14;2264713;86;25709;-73
2022/02/26 01:57:22;;;;;;;8.75;6.42;;;;;;;11.42;37.27;100702.36;2246629;87;30763;-82
2022/02/26 02:00:42;;;;;;;13.13;7.60;;;;;;;11.42;37.30;100702.36;2246693;86;25932;-84
2022/02/26 02:04:04;;;;;;;12.13;7.20;;;;;;;11.41;37.40;100704.95;2265369;86;30839;-84
2022/02/26 02:07:30;;;;;;;11.38;6.80;;;;;;;11.40;37.36;100700.12;2265294;86;25633;-71
2022/02/26 02:10:57;;;;;;;13.32;7.25;;;;;;;11.40;37.38;100707.07;2265687;86;25623;-72
2022/02/26 02:14:18;;;;;;;11.70;7.22;;;;;;;11.39;37.42;100704.02;2265463;87;25637;-73
2022/02/26 02:17:43;;;;;;;15.30;7.08;;;;;;;11.39;37.41;100712.72;2265430;86;25742;-73
2022/02/26 02:21:13;;;;;;;15.43;6.65;;;;;;;11.40;37.37;100722.73;2242083;87;25639;-72
2022/02/26 02:24:39;;;;;;;14.03;7.60;;;;;;;11.38;37.38;100721.41;2265327;86;25806;-72
2022/02/26 02:28:03;;;;;;;12.15;7.25;;;;;;;11.38;37.44;100724.44;2246630;86;25672;-71
2022/02/26 02:31:24;;;;;;;15.90;7.53;;;;;;;11.37;37.44;100729.18;2232772;84;25754;-74
2022/02/26 02:34:47;;;;;;;10.96;7.20;;;;;;;11.36;37.39;100736.13;2284584;86;30201;-71
2022/02/26 02:38:17;;;;;;;9.78;6.30;;;;;;;11.36;37.50;100747.88;2283809;86;25613;-79
2022/02/26 02:41:38;;;;;;;11.95;7.08;;;;;;;11.35;37.51;100740.48;2263120;85;25713;-76
2022/02/26 02:45:01;;;;;;;11.65;7.58;;;;;;;11.35;37.48;100746.13;2284883;85;25634;-79
2022/02/26 02:48:37;;;;;;;;;;;;;;;;;;;;;
2022/02/26 02:51:57;;;;;;;17.57;7.67;;;;;;;11.33;37.60;100751.71;2279438;85;25905;-71
2022/02/26 02:55:21;;;;;;;13.05;7.45;;;;;;;11.33;37.61;100762.16;2262461;86;25338;-77
2022/02/26 02:58:42;;;;;;;12.68;6.60;;;;;;;11.32;37.57;100761.27;2284915;86;25732;-72
2022/02/26 03:02:05;;;;;;;11.65;6.83;;;;;;;11.32;37.59;100762.58;2262386;86;25773;-73
2022/02/26 03:05:26;;;;;;;14.85;6.97;;;;;;;11.32;37.59;100771.72;2285012;86;29864;-73
2022/02/26 03:09:01;;;;;;;11.68;6.78;;;;;;;11.32;37.61;100776.06;2285139;85;25678;-75
2022/02/26 03:12:24;;;;;;;14.13;7.17;;;;;;;11.32;37.64;100787.80;2281416;85;25766;-74
2022/02/26 03:15:51;;;;;;;14.70;7.40;;;;;;;11.32;37.67;100786.50;2284556;86;25685;-76
2022/02/26 03:19:12;;;;;;;12.35;7.87;;;;;;;11.30;37.71;100787.74;2285223;86;26321;-76
2022/02/26 03:22:39;;;;;;;12.78;7.87;;;;;;;11.31;37.65;100797.36;2285185;85;30830;-76
2022/02/26 03:26:06;;;;;;;11.08;7.42;;;;;;;11.31;37.71;100800.40;2241227;86;25747;-73
2022/02/26 03:29:30;;;;;;;13.30;6.90;;;;;;;11.29;37.75;100803.37;2285150;86;25751;-73
2022/02/26 03:32:57;;;;;;;9.60;6.83;;;;;;;11.28;37.72;100810.75;2285038;85;25398;-75
2022/02/26 03:36:18;;;;;;;17.87;7.65;;;;;;;11.27;37.81;100807.27;2264221;86;25812;-73
2022/02/26 03:39:39;;;;;;;11.25;6.78;;;;;;;11.27;37.83;100816.40;2263945;86;30404;-79
2022/02/26 03:43:04;;;;;;;13.20;6.55;;;;;;;11.26;37.82;100808.52;2263612;86;25860;-72
2022/02/26 03:46:24;;;;;;;12.40;7.40;;;;;;;11.24;37.92;100822.84;2284656;85;25632;-74
2022/02/26 03:49:51;;;;;;;12.85;7.05;;;;;;;11.23;37.89;100824.96;2263828;85;30487;-77
2022/02/26 03:53:25;;;;;;;13.50;6.70;;;;;;;11.22;37.89;100834.95;2209165;89;25700;-72
2022/02/26 03:56:50;;;;;;;9.90;5.67;;;;;;;11.21;37.93;100837.11;2188847;89;26045;-75
2022/02/26 04:00:15;;;;;;;9.40;6.33;;;;;;;11.18;37.94;100838.32;2209764;89;25737;-72
2022/02/26 04:03:36;;;;;;;10.90;6.05;;;;;;;11.17;37.97;100854.83;2189035;89;25731;-74
2022/02/26 04:07:09;;;;;;;9.65;6.28;;;;;;;11.14;37.98;100852.52;2188872;89;25630;-77
2022/02/26 04:10:39;;;;;;;13.88;6.97;;;;;;;11.11;38.07;100862.48;2188381;89;25631;-75
2022/02/26 04:14:03;;;;;;;16.77;7.72;;;;;;;11.08;38.06;100864.56;2189789;88;25753;-77
2022/02/26 04:17:24;;;;;;;10.55;6.42;;;;;;;11.08;38.12;100875.42;2209745;88;25685;-83
2022/02/26 04:20:47;;;;;;;9.93;6.07;;;;;;;11.06;38.07;100880.58;2164704;89;30708;-78
2022/02/26 04:24:12;;;;;;;12.43;6.60;;;;;;;11.06;38.17;100880.58;2189082;89;25747;-72
2022/02/26 04:27:40;;;;;;;13.23;7.20;;;;;;;11.05;38.25;100888.37;2146330;89;29592;-74
2022/02/26 04:30:57;;;;;;;10.65;7.58;;;;;;;11.04;38.24;100887.92;2207475;88;26513;-76
2022/02/26 04:34:18;;;;;;;9.77;6.57;;;;;;;11.03;38.20;100897.87;2200868;89;28997;-75
2022/02/26 04:37:52;;;;;;;11.30;6.92;;;;;;;11.02;38.27;100901.33;2200772;89;25649;-74
2022/02/26 04:41:19;;;;;;;13.90;6.60;;;;;;;11.01;38.34;100911.31;2200711;88;25716;-75
2022/02/26 04:44:40;;;;;;;8.75;5.60;;;;;;;11.01;38.29;100911.31;2278155;86;25579;-73
2022/02/26 04:48:03;;;;;;;9.80;6.20;;;;;;;10.98;38.32;100919.92;2282277;86;30468;-77
2022/02/26 04:51:43;;;;;;;11.45;6.55;;;;;;;10.98;38.33;100922.95;2279386;85;25613;-72
2022/02/26 04:55:07;;;;;;;12.27;7.87;;;;;;;10.98;38.40;100928.17;2259066;86;25666;-79
2022/02/26 04:58:33;;;;;;;13.90;6.83;;;;;;;10.96;38.41;100937.24;2262185;86;25668;-76
2022/02/26 05:01:54;;;;;;;12.45;6.47;;;;;;;10.95;38.48;100939.39;2261591;86;25701;-73
2022/02/26 05:05:15;;;;;;;9.78;6.20;;;;;;;10.93;38.50;100942.78;2282645;85;25639;-74
2022/02/26 05:08:38;;;;;;;10.15;6.33;;;;;;;10.93;38.48;100950.19;2282160;86;30518;-72
2022/02/26 05:12:05;;;;;;;16.55;7.95;;;;;;;10.91;38.55;100952.31;2282645;86;25617;-73
2022/02/26 05:15:35;;;;;;;9.33;6.45;;;;;;;10.90;38.55;100957.03;2282152;86;25739;-72
2022/02/26 05:19:05;;;;;;;10.58;6.45;;;;;;;10.87;38.60;100956.55;2282444;85;25699;-71
2022/02/26 05:22:30;;;;;;;9.58;5.83;;;;;;;10.84;38.64;100961.23;2233951;87;25846;-72
2022/02/26 05:25:57;;;;;;;14.15;6.42;;;;;;;10.83;38.69;100963.39;2213531;88;25725;-77
2022/02/26 05:29:27;;;;;;;9.05;6.00;;;;;;;10.81;38.71;100966.35;2234733;88;25644;-72
2022/02/26 05:33:02;;;;;;;10.00;6.60;;;;;;;10.80;38.74;100975.41;2232295;87;30190;-73
2022/02/26 05:36:33;;;;;;;8.10;6.05;;;;;;;10.78;38.80;100980.59;2228060;88;25720;-75
2022/02/26 05:39:56;;;;;;;10.60;5.53;;;;;;;10.77;38.83;100983.17;2228108;88;25815;-73
2022/02/26 05:43:27;;;;;;;10.38;6.10;;;;;;;10.75;38.84;100980.92;2207252;88;26220;-76
2022/02/26 05:46:47;;;;;;;12.45;6.65;;;;;;;10.72;38.89;100979.52;2228583;88;25776;-72
2022/02/26 05:50:13;;;;;;;8.50;5.65;;;;;;;10.72;38.95;100993.43;2186464;87;45670;-73
2022/02/26 05:53:38;;;;;;;11.73;6.05;;;;;;;10.70;38.94;100988.99;2228214;87;25836;-72
2022/02/26 05:57:07;;;;;;;11.65;5.85;;;;;;;10.70;38.95;101002.03;2228222;88;25752;-74
2022/02/26 06:00:34;;;;;;;12.43;6.55;;;;;;;10.68;39.00;101002.00;2228111;87;25798;-73
2022/02/26 06:03:57;;;;;;;8.55;6.25;;;;;;;10.67;39.04;101008.06;2228238;88;26047;-72
2022/02/26 06:07:18;;;;;;;10.05;6.45;;;;;;;10.67;39.05;101011.09;2228103;88;30078;-77
2022/02/26 06:10:46;;;;;;;12.75;6.08;;;;;;;10.68;39.10;101014.16;2227977;87;25895;-73
2022/02/26 06:14:09;;;;;;;10.20;6.40;;;;;;;10.68;39.07;101025.47;2208238;88;25577;-72
2022/02/26 06:17:35;;;;;;;16.95;6.22;;;;;;;10.70;39.08;101027.72;2238758;86;26843;-74
2022/02/26 06:21:01;;;;;;;8.75;5.92;;;;;;;10.75;39.13;101036.99;2260515;86;25807;-81
2022/02/26 06:24:26;;;;;;;9.65;6.22;;;;;;;10.79;39.13;101046.26;2288696;86;25692;-73
2022/02/26 06:27:47;;;;;;;10.93;7.10;;;;;;;10.83;39.12;101049.86;2288142;85;25664;-73
2022/02/26 06:31:07;;;;;;;9.98;6.30;;;;;;;10.88;39.12;101066.56;2288283;86;25718;-74
2022/02/26 06:34:33;;;;;;;10.68;6.60;;;;;;;10.93;39.09;101074.11;2284905;86;30461;-73
2022/02/26 06:38:00;;;;;;;11.22;5.78;;;;;;;11.02;39.08;101078.76;2284850;85;25600;-72
2022/02/26 06:41:21;;;;;;;15.35;7.37;;;;;;;11.14;39.24;101087.39;2263807;86;25770;-76
2022/02/26 06:44:42;;;;;;;9.57;5.97;;;;;;;11.28;39.21;101090.93;2285155;85;28975;-72
2022/02/26 06:48:11;;;;;;;9.83;6.17;;;;;;;11.41;39.20;101102.66;2285359;86;29040;-77
2022/02/26 06:51:35;;;;;;;8.43;5.87;;;;;;;11.51;39.19;101107.33;2262435;84;25444;-72
2022/02/26 06:55:04;;;;;;;10.75;5.92;;;;;;;11.61;39.21;101116.73;2264156;85;26311;-73
2022/02/26 06:58:25;;;;;;;7.15;5.35;;;;;;;11.69;39.15;101124.41;2264029;86;25894;-74
2022/02/26 07:01:54;;;;;;;11.65;6.22;;;;;;;11.79;39.10;101127.34;2285234;86;29522;-73
2022/02/26 07:05:27;;;;;;;10.90;6.12;;;;;;;11.98;39.02;101137.06;2284910;85;25683;-77
2022/02/26 07:08:50;;;;;;;9.30;7.03;;;;;;;12.20;38.91;101142.09;2284883;85;25731;-84
2022/02/26 07:12:20;;;;;;;10.68;5.97;;;;;;;12.35;38.81;101145.98;2283876;85;25643;-77
2022/02/26 07:15:41;;;;;;;8.08;6.00;;;;;;;12.44;38.67;101153.67;2285182;86;25636;-79
2022/02/26 07:19:03;;;;;;;9.18;5.83;;;;;;;12.53;38.64;101155.67;2264094;86;25910;-73
2022/02/26 07:22:26;;;;;;;10.75;6.00;;;;;;;12.62;38.60;101163.78;2285065;85;25616;-72
2022/02/26 07:25:55;;;;;;;13.60;5.53;;;;;;;12.70;38.50;101165.30;2279611;85;25735;-73
2022/02/26 07:29:13;;;;;;;8.93;6.30;;;;;;;12.76;38.52;101165.04;2284748;86;25529;-76
2022/02/26 07:32:41;;;;;;;9.43;5.83;;;;;;;12.84;38.40;101172.20;2282384;84;25692;-75
2022/02/26 07:36:02;;;;;;;9.70;5.95;;;;;;;12.92;38.45;101166.74;2265420;86;25681;-73
2022/02/26 07:39:23;;;;;;;12.73;6.40;;;;;;;13.01;38.45;101176.16;2254477;86;25201;-72
2022/02/26 07:42:58;;;;;;;10.30;5.55;;;;;;;13.09;38.37;101180.27;2244682;88;30812;-72
2022/02/26 07:46:21;;;;;;;7.25;5.15;;;;;;;13.19;38.34;101183.59;2233205;87;25665;-74
2022/02/26 07:49:47;;;;;;;10.60;6.03;;;;;;;13.33;38.20;101187.51;2244177;88;25607;-72
2022/02/26 07:53:11;;;;;;;10.50;6.55;;;;;;;13.51;38.12;101194.93;2244203;88;25167;-76
2022/02/26 07:56:40;;;;;;;7.33;4.83;;;;;;;13.72;37.96;101191.94;2255265;86;25830;-81
2022/02/26 08:00:10;;;;;;;9.00;5.25;;;;;;;13.93;37.75;101188.48;2251603;86;25943;-76
2022/02/26 08:03:33;;;;;;;9.60;7.00;;;;;;;14.12;37.54;101200.28;2244151;87;25640;-82
2022/02/26 08:07:00;;;;;;;8.48;6.03;;;;;;;16.09;36.80;101205.23;2232041;88;26213;-73
2022/02/26 08:10:31;;;;;;;9.48;6.33;;;;;;;19.02;34.40;101208.61;2243920;86;25758;-73
2022/02/26 08:13:52;;;;;;;11.78;6.72;;;;;;;21.48;31.98;101210.19;2244459;87;25659;-75
2022/02/26 08:17:20;;;;;;;6.67;5.58;;;;;;;23.63;29.73;101222.62;2244388;86;25717;-82
2022/02/26 08:20:45;;;;;;;8.85;7.10;;;;;;;25.52;27.72;101230.78;2243919;86;26205;-74
2022/02/26 08:24:06;;;;;;;7.42;5.70;;;;;;;27.28;25.86;101243.23;2243115;88;25797;-87
2022/02/26 08:27:27;;;;;;;10.88;9.48;;;;;;;28.77;24.37;101248.30;2231791;88;25827;-74
2022/02/26 08:30:54;;;;;;;6.08;5.58;;;;;;;30.01;23.17;101255.84;2243509;88;25791;-74
2022/02/26 08:34:19;;;;;;;5.83;5.20;;;;;;;31.25;22.13;101266.30;2262634;86;25740;-87
2022/02/26 08:37:52;;;;;;;5.97;5.37;;;;;;;32.61;21.15;101278.25;2308211;84;33149;-87
2022/02/26 08:41:20;;;;;;;6.85;4.55;;;;;;;33.94;20.27;101286.48;2310796;84;25663;-75
2022/02/26 08:48:39;;;;;;;5.95;4.72;;;;;;;33.22;20.07;101292.91;2165706;89;25875;-82
2022/02/26 08:52:22;;;;;;;4.83;4.37;;;;;;;32.06;20.45;101291.92;2183318;88;25908;-76
2022/02/26 08:55:49;;;;;;;4.87;4.37;;;;;;;31.12;21.05;101298.81;2180034;89;25734;-74
2022/02/26 08:59:16;;;;;;;5.20;4.40;;;;;;;30.31;21.58;101301.60;2152106;90;25892;-80
2022/02/26 09:02:37;;;;;;;6.25;4.83;;;;;;;29.55;21.98;101296.25;2143035;92;25749;-78
2022/02/26 09:06:05;;;;;;;5.67;4.40;;;;;;;28.60;22.64;101297.23;2166060;90;25769;-77
2022/02/26 09:09:26;;;;;;;5.28;4.22;;;;;;;27.76;23.25;101309.55;2154063;90;26020;-87
2022/02/26 09:12:50;;;;;;;6.25;4.58;;;;;;;26.97;23.84;101309.73;2184624;90;25924;-85
2022/02/26 09:16:14;;;;;;;6.00;3.98;;;;;;;26.16;24.51;101313.31;2185797;90;25755;-80
2022/02/26 09:19:38;;;;;;;5.92;4.33;;;;;;;25.34;25.24;101330.38;2186788;90;26039;-76
2022/02/26 09:22:59;;;;;;;4.33;3.83;;;;;;;24.62;25.96;101323.00;2170268;90;25700;-72
2022/02/26 09:26:20;;;;;;;5.80;4.53;;;;;;;23.99;26.63;101329.43;2144718;90;25744;-72
2022/02/26 09:29:41;;;;;;;5.17;4.40;;;;;;;23.46;27.26;101333.34;2149607;92;25907;-77
2022/02/26 09:33:04;;;;;;;4.97;4.05;;;;;;;23.75;27.67;101345.36;2146382;92;26096;-78
2022/02/26 09:36:32;;;;;;;6.47;3.92;;;;;;;24.11;27.47;101346.55;2122544;90;25815;-82
2022/02/26 09:39:58;;;;;;;3.95;3.37;;;;;;;24.16;27.55;101359.32;2122640;93;25734;-74
2022/02/26 09:43:18;;;;;;;3.37;3.08;;;;;;;24.31;27.58;101359.53;2127989;89;25631;-86
2022/02/26 09:46:39;;;;;;;6.28;4.55;;;;;;;24.43;27.80;101362.45;2171705;91;25819;-87
2022/02/26 09:50:07;;;;;;;4.00;3.60;;;;;;;25.26;27.35;101365.72;2200765;86;25832;-75
2022/02/26 09:53:36;;;;;;;4.90;3.37;;;;;;;25.14;27.42;101375.31;2275828;84;25775;-75
2022/02/26 09:56:59;;;;;;;4.12;3.08;;;;;;;25.20;27.38;101379.20;2276741;86;25721;-75
2022/02/26 10:00:30;;;;;;;5.95;3.45;;;;;;;24.87;27.50;101375.39;2285056;86;25597;-72
2022/02/26 10:04:13;;;;;;;3.50;3.20;;;;;;;24.53;27.83;101382.70;2278950;86;25652;-73
2022/02/26 10:07:35;;;;;;;6.53;3.98;;;;;;;24.32;28.03;101385.27;2238907;87;25673;-72
2022/02/26 10:10:56;;;;;;;5.45;3.55;;;;;;;23.86;28.55;101383.80;2236910;87;25921;-73
2022/02/26 10:14:18;;;;;;;4.78;3.08;;;;;;;23.40;28.80;101387.11;2212684;88;25716;-73
2022/02/26 10:17:40;;;;;;;4.55;3.37;;;;;;;22.92;29.27;101387.67;2239332;87;25192;-78
2022/02/26 10:21:16;;;;;;;4.15;2.77;;;;;;;22.56;29.75;101388.48;2238448;86;25796;-79
2022/02/26 10:24:44;;;;;;;4.08;2.67;;;;;;;22.33;30.11;101386.48;2200390;88;26008;-76
2022/02/26 10:28:14;;;;;;;5.05;2.90;;;;;;;22.40;30.63;101389.52;2249192;87;25693;-82
2022/02/26 10:31:58;;;;;;;4.90;3.10;;;;;;;24.05;30.28;101401.27;2205878;88;25706;-82
2022/02/26 10:39:41;;;;;;;3.10;2.80;;;;;;;24.27;29.67;101407.13;2329165;85;25868;-76
2022/02/26 10:43:06;;;;;;;3.95;2.70;;;;;;;23.97;31.26;101413.84;2305692;84;25714;-83
2022/02/26 10:46:47;;;;;;;5.67;2.77;;;;;;;23.88;32.25;101417.95;2283512;83;25745;-85
2022/02/26 10:50:25;;;;;;;4.60;2.80;;;;;;;25.05;32.57;101414.19;2197606;88;25463;-74
2022/02/26 10:53:54;;;;;;;6.78;3.20;;;;;;;26.67;31.77;101416.29;2201419;88;26112;-77
2022/02/26 10:57:23;;;;;;;3.90;3.10;;;;;;;27.92;30.14;101427.38;2232712;87;25689;-80
2022/02/26 11:01:11;;;;;;;4.78;3.45;;;;;;;28.51;29.09;101429.02;2243955;85;25720;-74
2022/02/26 11:04:30;;;;;;;5.12;2.67;;;;;;;28.35;28.29;101427.75;2271977;87;25659;-78
2022/02/26 11:07:53;;;;;;;;;;;;;;;27.69;28.19;101425.38;2276311;87;25680;-74
2022/02/26 11:11:22;;;;;;;13.53;3.05;;;;;;;27.14;28.27;101418.14;2274355;85;25820;-79
2022/02/26 11:15:00;;;;;;;5.08;3.58;;;;;;;27.77;28.18;101428.72;2203311;88;25781;-79
2022/02/26 11:18:33;;;;;;;10.58;4.97;;;;;;;28.60;26.87;101422.47;2205123;89;26519;-82
2022/02/26 11:22:09;;;;;;;4.60;3.42;;;;;;;28.99;23.81;101420.19;2208947;88;25839;-81
2022/02/26 11:25:37;;;;;;;6.17;3.58;;;;;;;29.17;23.53;101423.55;2176858;90;25252;-76
2022/02/26 11:29:02;;;;;;;12.70;3.22;;;;;;;29.67;23.45;101420.33;2174623;89;25978;-76
2022/02/26 11:32:43;;;;;;;;;;;;;;;;;;;;;
2022/02/26 11:35:57;;;;;;;4.70;3.22;;;;;;;29.88;22.99;101435.62;2084019;92;25875;-72
2022/02/26 11:39:52;;;;;;;9.78;3.50;;;;;;;29.67;22.94;101433.33;2085250;94;25900;-81
2022/02/26 11:43:35;;;;;;;7.92;2.55;;;;;;;29.48;22.85;101431.78;2085669;94;25771;-75
2022/02/26 11:47:13;;;;;;;5.70;2.85;;;;;;;29.02;22.88;101422.76;2100483;93;25738;-75
2022/02/26 11:50:40;;;;;;;6.15;3.58;;;;;;;28.44;22.54;101424.33;2111980;92;25762;-75
2022/02/26 11:54:07;;;;;;;9.45;2.87;;;;;;;27.83;21.59;101424.11;2103141;92;25731;-79
2022/02/26 11:57:32;;;;;;;12.23;3.08;;;;;;;27.40;23.07;101421.38;2115507;92;25841;-80
2022/02/26 12:00:57;;;;;;;8.28;3.52;;;;;;;27.17;24.14;101422.04;2096128;92;25972;-73
2022/02/26 12:04:21;;;;;;;9.28;2.50;;;;;;;27.06;24.75;101418.30;2106627;92;25671;-77
2022/02/26 12:07:50;;;;;;;11.05;3.02;;;;;;;27.28;25.15;101413.25;2127858;92;25591;-76
2022/02/26 12:11:40;;;;;;;7.10;3.08;;;;;;;27.59;24.92;101417.22;2150906;90;25729;-73
2022/02/26 12:15:29;;;;;;;5.65;3.17;;;;;;;27.83;24.26;101428.12;2166826;91;25860;-77
2022/02/26 12:19:11;;;;;;;7.58;3.17;;;;;;;28.39;23.84;101429.47;2166358;90;26533;-77
2022/02/26 12:22:49;;;;;;;10.03;3.87;;;;;;;28.75;22.17;101425.07;2273278;86;25695;-77
2022/02/26 12:26:14;;;;;;;7.17;3.20;;;;;;;28.75;21.42;101429.09;2272997;85;25751;-73
2022/02/26 12:29:54;;;;;;;7.85;2.98;;;;;;;29.13;21.61;101422.39;2235369;87;25813;-74
2022/02/26 12:33:24;;;;;;;4.65;2.27;;;;;;;28.80;21.51;101429.36;2232550;88;25625;-75
2022/02/26 12:37:10;;;;;;;6.55;2.22;;;;;;;28.03;21.40;101431.05;2234787;88;26439;-74
2022/02/26 12:40:54;;;;;;;3.50;2.05;;;;;;;27.43;21.48;101429.31;2188736;89;25706;-79
2022/02/26 12:44:09;;;;;;;6.25;2.37;;;;;;;26.82;21.51;101427.44;2138376;90;25768;-77
2022/02/26 12:47:33;;;;;;;4.58;2.80;;;;;;;26.30;21.68;101428.77;2141796;91;25708;-77
2022/02/26 12:50:55;;;;;;;5.30;2.85;;;;;;;25.81;21.83;101429.06;2120139;91;25823;-77
2022/02/26 12:54:34;;;;;;;4.35;2.25;;;;;;;25.34;22.05;101431.83;2122205;91;25858;-74
2022/02/26 12:58:03;;;;;;;7.22;3.08;;;;;;;24.92;22.31;101426.42;2122461;91;25500;-74
2022/02/26 13:01:25;;;;;;;7.62;2.80;;;;;;;24.53;22.63;101429.81;2142222;91;25802;-76
2022/02/26 13:04:46;;;;;;;7.85;3.40;;;;;;;24.23;22.91;101432.95;2142174;91;25799;-73
2022/02/26 13:08:13;;;;;;;4.17;2.75;;;;;;;23.99;23.26;101439.97;2141996;88;25771;-73
2022/02/26 13:11:33;;;;;;;4.37;3.10;;;;;;;23.75;23.62;101438.09;2141821;91;25778;-77
2022/02/26 13:15:17;;;;;;;5.72;3.70;;;;;;;23.57;23.92;101443.66;2150817;89;25790;-74
2022/02/26 13:18:39;;;;;;;5.78;3.58;;;;;;;23.38;24.22;101452.77;2182714;89;25832;-71
2022/02/26 13:22:00;;;;;;;5.00;2.83;;;;;;;23.14;24.41;101451.28;2170269;88;25734;-74
2022/02/26 13:25:22;;;;;;;7.17;3.57;;;;;;;22.98;24.59;101447.89;2183813;89;25748;-74
2022/02/26 13:28:45;;;;;;;9.60;3.22;;;;;;;22.83;24.75;101451.13;2204530;89;25673;-73
2022/02/26 13:32:25;;;;;;;4.55;3.17;;;;;;;22.71;24.99;101448.57;2181948;89;25700;-72
2022/02/26 13:35:48;;;;;;;6.70;3.20;;;;;;;22.50;25.21;101443.46;2167542;91;25826;-72
2022/02/26 13:39:11;;;;;;;11.73;3.45;;;;;;;22.35;25.42;101453.78;2193797;86;25725;-74
2022/02/26 13:42:38;;;;;;;7.58;3.45;;;;;;;22.23;25.81;101452.09;2198068;89;25663;-76
2022/02/26 13:45:58;;;;;;;7.17;3.65;;;;;;;22.01;26.13;101455.77;2234233;87;25726;-72
2022/02/26 13:49:41;;;;;;;5.28;3.12;;;;;;;21.71;26.47;101460.81;2235521;88;25665;-90
2022/02/26 13:53:04;;;;;;;3.40;3.10;;;;;;;21.44;26.75;101466.68;2235243;87;25663;-77
2022/02/26 13:56:29;;;;;;;8.33;2.60;;;;;;;21.30;27.03;101460.52;2235621;87;25883;-78
2022/02/26 14:00:10;;;;;;;6.95;2.87;;;;;;;21.18;27.32;101460.09;2235253;87;25653;-85
2022/02/26 14:03:58;;;;;;;5.03;3.00;;;;;;;21.04;27.57;101472.06;2235410;87;25849;-85
2022/02/26 14:07:42;;;;;;;5.12;3.42;;;;;;;20.88;27.89;101475.62;2234995;87;25685;-76
2022/02/26 14:11:09;;;;;;;2.80;2.33;;;;;;;20.71;28.23;101479.61;2235944;87;26248;-77
2022/02/26 14:14:37;;;;;;;4.20;2.80;;;;;;;20.56;28.53;101481.84;2235571;87;25684;-76
2022/02/26 14:18:04;;;;;;;4.45;2.85;;;;;;;20.43;28.81;101486.66;2235319;87;25631;-79
2022/02/26 14:21:36;;;;;;;4.75;2.47;;;;;;;20.32;28.96;101487.98;2234851;87;25633;-77
2022/02/26 14:25:19;;;;;;;6.30;2.85;;;;;;;20.20;29.13;101489.27;2233707;87;25425;-78
2022/02/26 14:28:48;;;;;;;4.58;2.83;;;;;;;20.09;29.38;101485.29;2234438;87;25649;-80
2022/02/26 14:32:39;;;;;;;3.62;2.60;;;;;;;19.98;29.57;101490.56;2232041;87;25653;-74
2022/02/26 14:36:01;;;;;;;4.12;2.70;;;;;;;19.86;29.69;101494.48;2229953;88;25740;-85
2022/02/26 14:39:33;;;;;;;8.93;3.10;;;;;;;19.75;29.91;101495.78;2246417;84;25686;-77
2022/02/26 14:43:13;;;;;;;3.92;2.98;;;;;;;19.66;30.05;101503.67;2244794;88;25661;-78
2022/02/26 14:46:39;;;;;;;6.20;3.27;;;;;;;19.54;30.18;101499.20;2245452;88;25834;-80
2022/02/26 14:50:06;;;;;;;6.97;3.52;;;;;;;19.43;30.36;101503.53;2245707;88;25731;-82
2022/02/26 14:53:29;;;;;;;7.35;3.90;;;;;;;19.32;30.53;101507.45;2245348;88;25797;-86
2022/02/26 14:56:58;;;;;;;5.37;2.60;;;;;;;19.21;30.64;101522.38;2245254;88;25767;-79
2022/02/26 15:00:33;;;;;;;5.62;3.10;;;;;;;19.13;30.79;101521.86;2245285;88;25719;-81
2022/02/26 15:03:54;;;;;;;3.55;2.58;;;;;;;19.02;30.93;101528.40;2223922;88;25683;-82
2022/02/26 15:07:17;;;;;;;3.47;2.75;;;;;;;18.91;31.13;101535.37;2246058;88;25784;-80
2022/02/26 15:11:22;;;;;;;4.75;2.85;;;;;;;18.83;31.21;101538.84;2220352;87;25749;-75
2022/02/26 15:15:01;;;;;;;;;;;;;;;;;;;;;
2022/02/26 15:18:21;;;;;;;4.23;2.70;;;;;;;18.68;31.43;101550.55;2114579;92;25854;-84
2022/02/26 15:21:47;;;;;;;4.60;3.20;;;;;;;18.58;31.51;101548.27;2137071;92;25871;-76
2022/02/26 15:25:14;;;;;;;4.72;3.35;;;;;;;18.34;30.83;101547.59;2133590;92;25848;-78
2022/02/26 15:28:46;;;;;;;5.90;3.20;;;;;;;17.85;30.59;101543.50;2137329;92;25741;-74
2022/02/26 15:32:19;;;;;;;4.67;3.30;;;;;;;17.41;30.51;101548.64;2142640;92;25854;-74
2022/02/26 15:35:47;;;;;;;4.33;3.12;;;;;;;16.99;30.49;101560.28;2129126;92;25748;-76
2022/02/26 15:39:16;;;;;;;5.78;3.45;;;;;;;16.90;31.13;101565.39;2116014;93;25938;-73
2022/02/26 15:42:41;;;;;;;11.55;3.37;;;;;;;16.68;30.95;101572.02;2115172;93;25765;-77
2022/02/26 15:46:06;;;;;;;4.95;3.70;;;;;;;16.47;31.15;101569.90;2095986;93;26336;-75
2022/02/26 15:49:29;;;;;;;5.70;3.70;;;;;;;16.26;31.17;101574.30;2120362;92;25930;-74
2022/02/26 15:52:53;;;;;;;6.22;3.62;;;;;;;15.99;31.21;101579.90;2101265;92;25765;-76
2022/02/26 15:56:14;;;;;;;9.18;4.28;;;;;;;15.75;31.34;101581.59;2108772;92;25733;-76
2022/02/26 15:59:37;;;;;;;7.80;4.67;;;;;;;15.55;31.51;101583.75;2089401;93;30846;-76
2022/02/26 16:02:57;;;;;;;5.87;4.17;;;;;;;15.33;31.62;101590.27;2078709;95;26395;-75
2022/02/26 16:06:18;;;;;;;7.67;3.90;;;;;;;15.14;31.77;101595.92;2096287;90;30980;-74
2022/02/26 16:09:41;;;;;;;8.40;4.55;;;;;;;14.97;31.96;101597.25;2134435;89;25629;-77
2022/02/26 16:13:03;;;;;;;7.78;5.72;;;;;;;14.76;32.16;101604.16;2163935;90;30966;-72
2022/02/26 16:16:28;;;;;;;9.78;4.85;;;;;;;14.59;32.34;101605.03;2163141;90;25708;-73